Time;durP1;ratioP1;P1;durP2;ratioP2;P2;SDS_P1;SDS_P2;PMS_P1;PMS_P2;Temp;Humidity;BMP_temperature;BMP_pressure;BME280_temperature;BME280_humidity;BME280_pressure;Samples;Min_cycle;Max_cycle;Signal;HPM_P1;HPM_P2
2021/07/26 00:00:47;;;;;;;6.57;4.55;;;;;;;20.47;65.05;100821.94;10488468;28;20025;-75
2021/07/26 00:05:55;;;;;;;5.10;4.30;;;;;;;20.42;64.11;100797.16;10453668;28;20112;-75
2021/07/26 00:11:04;;;;;;;8.40;5.55;;;;;;;20.63;64.27;100837.47;10469778;28;20064;-76
2021/07/26 00:16:05;;;;;;;9.75;6.90;;;;;;;20.63;64.52;100828.41;10487078;28;20036;-75
2021/07/26 00:21:06;;;;;;;5.70;5.18;;;;;;;19.92;65.98;100716.00;10498289;28;20470;-75
2021/07/26 00:26:06;;;;;;;7.75;5.90;;;;;;;20.74;65.38;100834.78;10498000;28;20087;-75
2021/07/26 00:31:07;;;;;;;12.23;5.68;;;;;;;20.73;65.64;100831.19;10498391;28;20383;-75
2021/07/26 00:36:07;;;;;;;7.13;6.43;;;;;;;20.20;65.75;100772.56;10498246;28;20028;-75
2021/07/26 00:41:09;;;;;;;8.57;6.47;;;;;;;20.57;64.98;100833.03;10508089;28;20059;-75
2021/07/26 00:46:09;;;;;;;6.53;5.85;;;;;;;20.52;64.70;100841.28;10506844;28;20059;-75
2021/07/26 00:51:10;;;;;;;5.85;5.32;;;;;;;20.38;64.39;100809.78;10489374;28;20032;-76
2021/07/26 00:56:10;;;;;;;10.10;6.25;;;;;;;20.30;64.17;100819.38;10471245;28;20035;-75
2021/07/26 01:01:13;;;;;;;11.60;5.75;;;;;;;20.20;64.12;100828.38;10487989;28;20055;-75
2021/07/26 01:06:13;;;;;;;13.20;6.03;;;;;;;20.14;64.25;100812.91;10488265;28;20037;-75
2021/07/26 01:11:14;;;;;;;7.90;5.72;;;;;;;20.10;64.55;100805.44;10505576;28;20039;-75
2021/07/26 01:16:15;;;;;;;10.27;8.05;;;;;;;19.15;64.58;100651.38;10507290;28;20025;-76
2021/07/26 01:21:16;;;;;;;8.73;7.82;;;;;;;20.06;64.38;100813.41;10489458;28;20044;-75
2021/07/26 01:26:18;;;;;;;17.45;9.07;;;;;;;20.05;64.32;100814.50;10488292;28;20052;-76
2021/07/26 01:31:19;;;;;;;15.55;10.95;;;;;;;19.39;64.76;100688.34;10486087;28;20101;-75
2021/07/26 01:36:20;;;;;;;12.07;8.75;;;;;;;20.00;64.74;100784.22;10505593;28;20077;-75
2021/07/26 01:41:28;;;;;;;15.50;12.75;;;;;;;20.27;64.89;100811.63;10486326;28;20052;-76
2021/07/26 01:47:03;;;;;;;13.98;12.00;;;;;;;20.25;63.56;100822.06;10502927;28;20021;-75
2021/07/26 01:52:04;;;;;;;19.00;14.38;;;;;;;20.30;65.25;100819.38;10485205;28;20425;-75
2021/07/26 01:57:04;;;;;;;15.88;14.13;;;;;;;20.40;65.41;100826.84;10503211;28;20040;-75
2021/07/26 02:02:05;;;;;;;18.45;14.43;;;;;;;20.46;64.78;100813.97;10485665;28;20464;-75
2021/07/26 02:07:06;;;;;;;14.10;12.70;;;;;;;20.57;65.26;100819.28;10468568;28;20210;-75
2021/07/26 02:12:07;;;;;;;20.50;14.15;;;;;;;20.71;64.79;100813.28;10503511;28;20040;-76
2021/07/26 02:17:07;;;;;;;18.15;15.70;;;;;;;20.76;64.60;100811.41;10484923;28;20436;-75
2021/07/26 02:22:08;;;;;;;21.98;15.18;;;;;;;20.76;64.50;100819.66;10502560;28;20044;-76
2021/07/26 02:27:08;;;;;;;19.33;15.02;;;;;;;20.60;65.37;100815.19;10502279;28;20049;-75
2021/07/26 02:32:08;;;;;;;18.73;15.13;;;;;;;20.57;65.45;100818.47;10502761;28;20464;-75
2021/07/26 02:37:09;;;;;;;19.48;15.00;;;;;;;20.62;64.85;100816.56;10502619;28;20025;-76
2021/07/26 02:42:09;;;;;;;19.70;15.35;;;;;;;20.54;65.22;100800.56;10501793;28;20455;-75
2021/07/26 02:47:10;;;;;;;17.13;14.40;;;;;;;20.70;65.68;100811.66;10483141;28;20542;-75
2021/07/26 02:52:10;;;;;;;20.90;18.33;;;;;;;20.77;65.23;100818.59;10501360;28;20059;-75
2021/07/26 02:57:10;;;;;;;20.70;15.95;;;;;;;20.87;64.83;100817.81;10500877;28;20111;-75
2021/07/26 03:02:11;;;;;;;20.40;16.88;;;;;;;20.85;65.34;100822.75;10500533;28;20514;-75
2021/07/26 03:07:11;;;;;;;18.48;16.58;;;;;;;20.88;65.10;100824.97;10501838;28;20060;-75
2021/07/26 03:12:12;;;;;;;19.85;17.10;;;;;;;20.95;65.12;100827.47;10500390;28;20037;-75
2021/07/26 03:17:12;;;;;;;23.52;18.00;;;;;;;20.32;64.86;100720.09;10500338;28;20457;-75
2021/07/26 03:22:50;;;;;;;18.65;16.17;;;;;;;20.93;63.88;100830.50;10482413;28;20056;-75
2021/07/26 03:27:51;;;;;;;23.48;17.42;;;;;;;19.57;65.23;100603.91;10501823;28;20111;-76
2021/07/26 03:32:51;;;;;;;17.10;14.90;;;;;;;20.70;65.31;100781.38;10500520;28;20123;-75
2021/07/26 03:37:52;;;;;;;20.33;16.15;;;;;;;20.86;64.96;100786.69;10499515;28;20038;-75
2021/07/26 03:42:52;;;;;;;19.88;17.80;;;;;;;21.17;64.97;100839.13;10499830;28;20417;-76
2021/07/26 03:47:56;;;;;;;23.80;16.80;;;;;;;20.94;65.11;100795.53;10497506;28;20412;-75
2021/07/26 03:52:57;;;;;;;18.95;15.68;;;;;;;21.23;64.70;100839.97;10480356;28;20367;-76
2021/07/26 03:58:00;;;;;;;20.80;14.98;;;;;;;21.14;64.38;100814.88;10497916;28;20044;-75
2021/07/26 04:08:17;;;;;;;21.13;15.18;;;;;;;21.27;64.71;100843.84;10453405;28;20063;-75
2021/07/26 04:13:17;;;;;;;27.92;16.90;;;;;;;21.34;64.34;100833.38;10484518;28;20431;-75
2021/07/26 04:18:18;;;;;;;17.08;14.45;;;;;;;21.35;64.18;100840.59;10466829;28;20108;-76
2021/07/26 04:23:18;;;;;;;22.00;15.60;;;;;;;21.36;64.42;100842.25;10486657;28;20111;-75
2021/07/26 04:28:19;;;;;;;22.60;15.98;;;;;;;21.29;64.68;100850.72;10485009;28;20397;-76
2021/07/26 04:33:19;;;;;;;22.92;14.07;;;;;;;21.36;64.43;100847.75;10482827;28;20470;-75
2021/07/26 04:38:20;;;;;;;23.65;18.05;;;;;;;21.44;64.45;100832.63;10482469;28;20059;-74
2021/07/26 04:43:20;;;;;;;18.55;15.30;;;;;;;21.49;64.32;100855.50;10483139;28;20033;-77
2021/07/26 04:48:21;;;;;;;31.00;18.40;;;;;;;21.49;64.33;100836.22;10483154;28;20107;-78
2021/07/26 04:53:22;;;;;;;24.08;18.15;;;;;;;21.31;63.77;100834.78;10483244;28;20351;-75
2021/07/26 04:58:22;;;;;;;19.13;16.92;;;;;;;21.38;64.51;100830.94;10483651;28;20215;-76
2021/07/26 05:03:23;;;;;;;22.90;16.35;;;;;;;21.36;64.28;100818.28;10486295;28;20043;-79
2021/07/26 05:08:23;;;;;;;21.73;16.65;;;;;;;21.35;64.61;100835.91;10471731;28;20077;-79
2021/07/26 05:13:24;;;;;;;21.15;19.02;;;;;;;20.31;66.04;100707.44;10470269;28;20043;-75
2021/07/26 05:18:24;;;;;;;24.70;18.30;;;;;;;21.10;66.39;100846.81;10468596;28;20031;-75
2021/07/26 05:23:25;;;;;;;23.02;17.10;;;;;;;21.12;66.68;100848.19;10487767;28;20045;-75
2021/07/26 05:28:25;;;;;;;17.75;15.82;;;;;;;21.34;65.96;100841.66;10460982;28;20099;-76
2021/07/26 05:33:26;;;;;;;21.63;18.58;;;;;;;20.70;66.12;100729.09;10495989;28;20143;-76
2021/07/26 05:38:26;;;;;;;19.98;17.58;;;;;;;21.45;66.05;100843.38;10498301;28;20382;-76
2021/07/26 05:43:26;;;;;;;21.65;16.27;;;;;;;21.40;66.89;100846.09;10480481;28;20059;-76
2021/07/26 05:48:27;;;;;;;23.00;18.58;;;;;;;21.64;66.04;100848.38;10498144;28;20412;-76
2021/07/26 05:53:27;;;;;;;24.48;17.15;;;;;;;21.81;65.76;100846.19;10481934;28;20033;-76
2021/07/26 05:58:30;;;;;;;22.20;16.10;;;;;;;22.10;65.34;100838.22;10504269;28;20111;-77
2021/07/26 06:03:30;;;;;;;18.02;15.82;;;;;;;22.29;64.84;100836.56;10485127;28;20040;-76
2021/07/26 06:08:31;;;;;;;21.77;16.30;;;;;;;22.41;64.51;100839.06;10480020;28;20043;-78
2021/07/26 06:13:31;;;;;;;22.48;20.10;;;;;;;22.21;64.92;100845.44;10478781;28;20182;-77
2021/07/26 06:18:32;;;;;;;15.75;14.15;;;;;;;21.71;66.02;100846.19;10497725;28;20094;-76
2021/07/26 06:23:33;;;;;;;22.10;16.88;;;;;;;20.39;68.03;100729.78;10496312;28;20135;-77
2021/07/26 06:28:34;;;;;;;25.30;19.88;;;;;;;20.74;69.95;100863.16;10495070;28;20113;-76
2021/07/26 06:33:34;;;;;;;20.95;16.55;;;;;;;20.71;70.16;100871.94;10494928;28;20031;-78
2021/07/26 06:38:36;;;;;;;16.40;14.45;;;;;;;20.65;70.50;100879.31;10495636;28;20455;-77
2021/07/26 06:43:36;;;;;;;17.58;13.95;;;;;;;20.51;69.69;100842.34;10496377;28;20169;-78
2021/07/26 06:48:37;;;;;;;13.25;9.88;;;;;;;20.90;69.40;100889.66;10477320;28;20178;-77
2021/07/26 06:53:37;;;;;;;12.63;11.38;;;;;;;20.87;70.40;100897.63;10477472;28;20359;-78
2021/07/26 06:58:38;;;;;;;13.23;11.38;;;;;;;20.43;69.81;100765.81;10458970;28;20033;-77
2021/07/26 07:03:39;;;;;;;14.40;11.00;;;;;;;21.48;68.66;100899.88;10477029;28;20082;-76
2021/07/26 07:08:40;;;;;;;13.73;11.85;;;;;;;21.55;68.34;100881.97;10479816;28;20028;-75
2021/07/26 07:13:41;;;;;;;21.75;14.38;;;;;;;21.68;68.16;100899.09;10496085;28;20032;-77
2021/07/26 07:18:42;;;;;;;22.55;16.17;;;;;;;21.54;68.20;100854.72;10475354;28;20032;-77
2021/07/26 07:23:43;;;;;;;20.08;16.45;;;;;;;22.01;67.74;100895.00;10477823;28;20115;-77
2021/07/26 07:28:46;;;;;;;25.25;19.95;;;;;;;22.16;67.80;100894.25;10479046;28;20052;-78
2021/07/26 07:33:46;;;;;;;21.45;19.23;;;;;;;22.55;67.51;100866.06;10495222;28;20039;-79
2021/07/26 07:38:47;;;;;;;19.40;17.40;;;;;;;22.82;66.74;100876.78;10494485;28;20028;-78
2021/07/26 07:43:47;;;;;;;23.35;17.98;;;;;;;23.16;66.43;100885.25;10473735;28;20127;-77
2021/07/26 07:48:49;;;;;;;18.65;16.48;;;;;;;23.52;65.84;100850.00;10491896;28;20366;-78
2021/07/26 07:53:51;;;;;;;21.02;17.13;;;;;;;24.46;64.51;100863.72;10439111;28;20066;-80
2021/07/26 07:58:55;;;;;;;20.50;15.38;;;;;;;26.45;61.93;100893.53;10472677;28;20021;-79
2021/07/26 08:03:55;;;;;;;12.60;11.38;;;;;;;26.57;60.84;100907.78;10455964;28;20051;-77
2021/07/26 08:08:56;;;;;;;15.20;10.70;;;;;;;27.13;60.38;100909.53;10427017;28;20071;-76
2021/07/26 08:13:56;;;;;;;8.00;7.20;;;;;;;27.57;58.37;100905.28;10472574;28;20527;-76
2021/07/26 08:18:57;;;;;;;9.20;8.18;;;;;;;26.45;59.04;100857.44;10494288;28;20345;-75
2021/07/26 08:23:59;;;;;;;13.05;9.38;;;;;;;26.13;59.99;100908.22;10472771;28;20045;-75
2021/07/26 08:29:00;;;;;;;10.57;9.50;;;;;;;25.52;61.22;100905.19;10491218;28;20340;-75
2021/07/26 08:34:00;;;;;;;13.13;11.13;;;;;;;25.23;61.66;100890.59;10491095;28;20028;-75
2021/07/26 08:39:01;;;;;;;15.10;11.55;;;;;;;26.46;60.69;100870.19;10488655;28;20033;-75
2021/07/26 08:44:02;;;;;;;16.83;11.07;;;;;;;28.59;57.83;100888.13;10470091;28;20076;-76
2021/07/26 08:49:02;;;;;;;8.60;7.90;;;;;;;27.73;59.48;100797.25;10489769;28;20043;-75
2021/07/26 08:54:04;;;;;;;9.68;8.45;;;;;;;27.93;56.22;100890.59;10471633;28;20036;-75
2021/07/26 08:59:05;;;;;;;8.70;7.90;;;;;;;27.80;56.77;100888.69;10474112;28;20347;-75
2021/07/26 09:04:05;;;;;;;9.13;7.88;;;;;;;27.32;55.67;100833.53;10498051;28;20020;-75
2021/07/26 09:09:05;;;;;;;7.53;6.63;;;;;;;27.10;55.64;100876.78;10499112;28;20028;-75
2021/07/26 09:14:06;;;;;;;8.43;7.57;;;;;;;27.02;56.44;100833.00;10498401;28;20040;-76
2021/07/26 09:19:07;;;;;;;8.25;7.53;;;;;;;28.86;55.43;100923.34;10479379;28;20040;-75
2021/07/26 09:24:07;;;;;;;10.43;8.52;;;;;;;29.10;50.99;100897.91;10495963;28;20072;-76
2021/07/26 09:29:27;;;;;;;7.40;4.97;;;;;;;29.73;56.00;100889.34;10477335;28;20119;-76
2021/07/26 09:34:28;;;;;;;13.45;5.40;;;;;;;29.81;50.44;100903.31;10476222;28;20106;-75
2021/07/26 09:39:29;;;;;;;8.45;5.40;;;;;;;28.52;54.24;100908.06;10475983;28;20037;-75
2021/07/26 09:44:30;;;;;;;5.60;5.03;;;;;;;28.12;56.39;100912.69;10490687;28;20032;-75
2021/07/26 09:49:30;;;;;;;5.65;4.95;;;;;;;27.25;54.36;100905.41;10471254;28;20088;-76
2021/07/26 09:54:44;;;;;;;5.32;4.93;;;;;;;26.67;56.77;100906.78;10438357;28;20040;-75
2021/07/26 09:59:45;;;;;;;4.03;3.72;;;;;;;26.63;55.17;100909.34;10491569;28;20039;-75
2021/07/26 10:04:48;;;;;;;4.60;4.20;;;;;;;28.40;53.18;100893.06;10495912;28;20475;-76
2021/07/26 10:09:49;;;;;;;4.00;3.00;;;;;;;30.35;51.31;100870.28;10461652;28;20032;-77
2021/07/26 10:14:50;;;;;;;3.30;3.10;;;;;;;31.04;50.45;100868.41;10497751;28;20087;-76
2021/07/26 10:19:51;;;;;;;2.67;2.47;;;;;;;32.37;48.71;100902.41;10478913;28;20113;-77
2021/07/26 10:25:18;;;;;;;4.63;4.22;;;;;;;31.20;50.90;100877.88;10496602;28;20118;-76
2021/07/26 10:30:35;;;;;;;5.28;4.00;;;;;;;31.52;50.49;100866.34;10497018;28;20044;-74
2021/07/26 10:35:39;;;;;;;3.42;3.00;;;;;;;31.57;48.72;100886.56;10480199;28;20064;-77
2021/07/26 10:40:43;;;;;;;3.03;2.83;;;;;;;29.98;47.39;100767.66;10507468;28;20042;-78
2021/07/26 10:45:49;;;;;;;3.65;3.35;;;;;;;29.57;50.12;100917.69;10464918;28;20082;-78
2021/07/26 10:50:54;;;;;;;3.28;3.08;;;;;;;28.79;50.83;100880.38;10496724;28;20452;-77
2021/07/26 10:56:03;;;;;;;2.58;2.47;;;;;;;28.22;55.15;100869.84;10461916;28;20047;-78
2021/07/26 11:01:19;;;;;;;4.03;3.05;;;;;;;28.72;53.12;100920.66;10496614;28;20029;-78
2021/07/26 11:06:37;;;;;;;5.88;3.95;;;;;;;30.68;52.66;100900.44;10497282;28;20032;-78
2021/07/26 11:11:41;;;;;;;7.80;2.90;;;;;;;31.01;48.31;100900.66;10499440;28;20409;-80
2021/07/26 11:16:58;;;;;;;2.78;2.60;;;;;;;29.07;51.79;100797.31;10499548;28;20045;-79
2021/07/26 11:22:00;;;;;;;3.75;3.50;;;;;;;28.58;51.83;100922.69;10479311;28;20040;-77
2021/07/26 11:27:00;;;;;;;2.97;2.50;;;;;;;27.36;52.75;100901.28;10496828;28;20045;-76
2021/07/26 11:32:01;;;;;;;2.67;2.58;;;;;;;27.39;52.31;100866.50;10475298;28;20041;-78
2021/07/26 11:37:05;;;;;;;2.67;2.58;;;;;;;28.25;52.60;100910.97;10491081;28;20078;-76
2021/07/26 11:42:05;;;;;;;3.28;3.08;;;;;;;28.02;54.37;100890.66;10492533;28;20032;-76
2021/07/26 11:47:05;;;;;;;4.57;3.55;;;;;;;27.88;51.08;100882.34;10476413;28;20044;-77
2021/07/26 11:52:07;;;;;;;5.85;4.28;;;;;;;28.31;52.53;100908.91;10494986;28;20066;-76
2021/07/26 11:57:09;;;;;;;4.13;3.80;;;;;;;27.61;53.80;100851.81;10496375;28;20044;-76
2021/07/26 12:02:14;;;;;;;3.40;2.67;;;;;;;27.53;55.40;100875.63;10495341;28;20025;-77
2021/07/26 12:07:15;;;;;;;6.13;4.13;;;;;;;27.36;53.96;100834.56;10493923;28;20060;-76
2021/07/26 12:12:16;;;;;;;12.43;3.60;;;;;;;27.67;55.78;100895.06;10494469;28;20049;-76
2021/07/26 12:17:24;;;;;;;3.05;2.83;;;;;;;26.52;56.05;100729.34;10461436;28;20578;-76
2021/07/26 12:22:24;;;;;;;2.67;2.47;;;;;;;27.44;54.02;100916.41;10478604;28;20055;-76
2021/07/26 12:27:32;;;;;;;6.30;5.10;;;;;;;26.93;56.05;100934.94;10496828;28;20036;-76
2021/07/26 12:32:48;;;;;;;9.32;4.72;;;;;;;26.41;58.06;100928.59;10477597;28;20079;-75
2021/07/26 12:38:13;;;;;;;7.43;6.00;;;;;;;25.45;58.88;100835.41;10502993;28;20032;-77
2021/07/26 12:43:25;;;;;;;9.18;7.25;;;;;;;25.81;58.40;100942.28;10497406;28;20127;-75
2021/07/26 12:48:28;;;;;;;9.82;6.38;;;;;;;25.73;57.81;100900.19;10498445;28;20365;-76
2021/07/26 12:53:28;;;;;;;6.22;5.65;;;;;;;25.40;59.48;100923.38;10480975;28;20024;-76
2021/07/26 12:58:30;;;;;;;6.93;5.88;;;;;;;25.06;59.97;100943.72;10501988;28;20033;-77
2021/07/26 13:03:31;;;;;;;11.13;7.15;;;;;;;24.80;59.66;100943.16;10454867;28;20071;-75
2021/07/26 13:08:31;;;;;;;12.73;8.60;;;;;;;24.24;61.10;100941.63;10497288;28;20048;-76
2021/07/26 13:13:33;;;;;;;10.98;8.75;;;;;;;24.08;61.57;100965.81;10496201;28;20182;-76
2021/07/26 13:18:34;;;;;;;15.25;10.60;;;;;;;22.57;62.53;100778.31;10479573;28;20541;-78
2021/07/26 13:23:34;;;;;;;16.35;10.70;;;;;;;22.76;64.04;100933.94;10460559;28;20060;-78
2021/07/26 13:28:34;;;;;;;14.20;11.68;;;;;;;23.18;64.76;100979.75;10478114;28;20045;-78
2021/07/26 13:33:35;;;;;;;12.88;11.55;;;;;;;23.30;64.72;100971.97;10476331;28;20063;-79
2021/07/26 13:38:36;;;;;;;14.25;11.95;;;;;;;23.51;64.25;100961.66;10494077;28;20091;-79
2021/07/26 13:43:36;;;;;;;17.55;12.07;;;;;;;23.97;63.65;100946.84;10493884;28;20028;-80
2021/07/26 13:48:37;;;;;;;14.13;12.80;;;;;;;24.37;63.73;100951.22;10495276;28;20044;-79
2021/07/26 13:53:37;;;;;;;15.50;10.27;;;;;;;24.57;62.77;100958.59;10495686;28;20032;-79
2021/07/26 13:58:37;;;;;;;12.02;10.45;;;;;;;24.92;62.12;100956.59;10495782;28;20441;-80
2021/07/26 14:03:38;;;;;;;12.10;10.25;;;;;;;25.24;62.03;100937.44;10493821;28;20091;-79
2021/07/26 14:08:38;;;;;;;15.75;12.60;;;;;;;25.75;61.45;100938.75;10477316;28;20066;-79
2021/07/26 14:13:39;;;;;;;12.63;10.43;;;;;;;24.71;59.72;100732.47;10497895;28;20578;-79
2021/07/26 14:18:39;;;;;;;15.07;10.80;;;;;;;25.67;60.70;100934.66;10479315;28;20041;-78
2021/07/26 14:23:39;;;;;;;12.65;10.77;;;;;;;25.28;60.83;100952.34;10498479;28;20055;-79
2021/07/26 14:28:40;;;;;;;15.65;11.43;;;;;;;24.89;61.47;100958.03;10498004;28;20127;-78
2021/07/26 14:33:40;;;;;;;17.00;12.30;;;;;;;24.74;61.18;100955.41;10478711;28;20119;-78
2021/07/26 14:38:41;;;;;;;15.98;13.60;;;;;;;24.91;61.49;100977.09;10497214;28;20128;-78
2021/07/26 14:43:41;;;;;;;17.98;14.18;;;;;;;24.62;61.97;100983.47;10470897;28;20436;-78
2021/07/26 14:48:42;;;;;;;13.90;12.05;;;;;;;24.02;61.82;100928.25;10479028;28;20044;-77
2021/07/26 14:53:42;;;;;;;13.57;11.55;;;;;;;23.97;61.93;100925.53;10495895;28;20044;-77
2021/07/26 14:58:43;;;;;;;18.52;12.90;;;;;;;24.41;62.13;100973.63;10499439;28;20425;-77
2021/07/26 15:03:43;;;;;;;20.08;12.35;;;;;;;24.61;61.70;100984.59;10497971;28;20507;-77
2021/07/26 15:08:44;;;;;;;13.35;11.18;;;;;;;24.35;61.64;100948.78;10495111;28;20036;-77
2021/07/26 15:13:44;;;;;;;17.77;13.13;;;;;;;24.43;61.52;100985.28;10496767;28;20024;-78
2021/07/26 15:18:45;;;;;;;14.57;12.20;;;;;;;24.56;61.39;100987.38;10500134;28;20056;-77
2021/07/26 15:23:45;;;;;;;13.65;11.50;;;;;;;23.86;61.76;100915.63;10495602;28;20141;-78
2021/07/26 15:28:46;;;;;;;18.40;13.60;;;;;;;24.25;62.16;100998.66;10493445;28;20117;-77
2021/07/26 15:33:49;;;;;;;17.02;13.13;;;;;;;24.44;61.82;100990.53;10479209;28;20407;-77
2021/07/26 15:38:50;;;;;;;14.27;12.13;;;;;;;24.33;61.48;100948.22;10494999;28;20413;-77
2021/07/26 15:43:50;;;;;;;17.08;12.15;;;;;;;24.70;61.42;100982.03;10493162;28;20098;-77
2021/07/26 15:48:51;;;;;;;15.57;12.25;;;;;;;24.14;61.00;100828.28;10494579;28;20494;-77
2021/07/26 15:53:52;;;;;;;15.30;12.82;;;;;;;25.33;60.02;100953.41;10475884;28;20367;-78
2021/07/26 15:58:52;;;;;;;15.25;12.63;;;;;;;25.47;59.43;100988.44;10473154;28;20040;-78
2021/07/26 16:03:53;;;;;;;22.75;16.92;;;;;;;25.44;59.65;100985.44;10473244;28;20379;-77
2021/07/26 16:08:54;;;;;;;22.52;20.15;;;;;;;25.63;59.70;100966.91;10456956;28;20032;-77
2021/07/26 16:13:54;;;;;;;30.23;21.60;;;;;;;26.02;59.11;100974.16;10491220;28;20028;-78
2021/07/26 16:18:55;;;;;;;40.10;25.52;;;;;;;26.43;58.47;100973.56;10494408;28;20043;-78
2021/07/26 16:23:56;;;;;;;38.47;24.90;;;;;;;26.72;57.34;100981.72;10495302;28;20056;-78
2021/07/26 16:28:57;;;;;;;34.75;23.52;;;;;;;26.95;56.64;100974.34;10494673;28;20136;-77
2021/07/26 16:33:58;;;;;;;31.70;22.52;;;;;;;25.61;57.07;100824.13;10477755;28;20032;-78
2021/07/26 16:38:59;;;;;;;31.58;23.00;;;;;;;26.46;58.45;100947.13;10477353;28;20488;-77
2021/07/26 16:44:00;;;;;;;38.70;24.67;;;;;;;26.47;55.53;100968.22;10475661;28;20082;-77
2021/07/26 16:49:01;;;;;;;32.38;25.10;;;;;;;26.25;56.58;100941.06;10494494;28;20464;-77
2021/07/26 16:54:02;;;;;;;40.50;20.58;;;;;;;26.33;56.66;100962.63;10494893;28;20036;-77
2021/07/26 16:59:03;;;;;;;27.98;20.00;;;;;;;26.18;58.14;100958.13;10456334;28;20040;-77
2021/07/26 17:04:06;;;;;;;25.10;18.80;;;;;;;25.84;57.46;100973.03;10491133;28;20032;-77
2021/07/26 17:09:06;;;;;;;20.60;18.02;;;;;;;25.12;57.34;100869.66;10493035;28;20040;-77
2021/07/26 17:14:08;;;;;;;19.08;15.98;;;;;;;25.69;57.95;100979.59;10478512;28;20043;-77
2021/07/26 17:19:09;;;;;;;29.70;19.02;;;;;;;25.10;58.25;100892.13;10497547;28;20032;-77
2021/07/26 17:24:09;;;;;;;33.65;19.95;;;;;;;25.37;58.50;100991.34;10504681;28;20052;-77
2021/07/26 17:29:10;;;;;;;20.38;16.20;;;;;;;24.58;60.20;100958.28;10505514;28;20426;-76
2021/07/26 17:34:10;;;;;;;20.17;17.05;;;;;;;24.50;59.75;101005.13;10488084;28;20032;-77
2021/07/26 17:39:12;;;;;;;22.02;17.23;;;;;;;24.10;61.79;101007.06;10492364;28;20106;-77
2021/07/26 17:44:13;;;;;;;26.95;18.48;;;;;;;23.74;61.29;101000.84;10504058;28;20033;-77
2021/07/26 17:49:13;;;;;;;24.15;16.58;;;;;;;23.88;61.95;100996.38;10504488;28;20040;-77
2021/07/26 17:54:13;;;;;;;24.80;16.45;;;;;;;23.82;61.23;100978.97;10504816;28;20074;-77
2021/07/26 17:59:14;;;;;;;25.70;18.13;;;;;;;23.40;61.58;100913.91;10503740;28;20052;-77
2021/07/26 18:04:14;;;;;;;28.55;18.55;;;;;;;23.90;61.61;101006.06;10503765;28;20025;-77
2021/07/26 18:09:15;;;;;;;34.45;18.45;;;;;;;22.94;62.52;100900.28;10504046;28;20033;-77
2021/07/26 18:14:15;;;;;;;29.25;18.15;;;;;;;23.42;62.22;101002.03;10503323;28;20032;-77
2021/07/26 18:19:16;;;;;;;25.15;18.52;;;;;;;23.36;62.60;101006.78;10485055;28;20032;-76
2021/07/26 18:24:16;;;;;;;34.28;19.27;;;;;;;23.30;62.58;101009.84;10501450;28;20057;-77
2021/07/26 18:29:17;;;;;;;31.55;20.80;;;;;;;23.27;62.98;101010.41;10484552;28;20047;-77
2021/07/26 18:34:17;;;;;;;34.45;21.60;;;;;;;23.17;62.82;101014.00;10502243;28;20493;-77
2021/07/26 18:39:17;;;;;;;33.47;20.73;;;;;;;22.33;63.74;100918.78;10467083;28;20051;-77
2021/07/26 18:44:19;;;;;;;25.85;18.95;;;;;;;22.84;64.02;101031.94;10495220;28;20036;-77
2021/07/26 18:49:19;;;;;;;40.33;23.30;;;;;;;22.30;63.93;100956.03;10492110;28;20099;-78
2021/07/26 18:54:20;;;;;;;32.50;20.48;;;;;;;22.68;64.21;101040.22;10473923;28;20052;-76
2021/07/26 18:59:21;;;;;;;39.05;22.73;;;;;;;22.61;64.12;101050.72;10491872;28;20032;-78
2021/07/26 19:04:21;;;;;;;34.22;21.50;;;;;;;22.00;64.11;100943.81;10473381;28;20052;-77
2021/07/26 19:09:24;;;;;;;30.50;21.08;;;;;;;22.62;63.90;101048.78;10490651;28;20353;-78
2021/07/26 19:14:24;;;;;;;35.92;24.30;;;;;;;22.58;64.48;101048.50;10473226;28;20035;-78
2021/07/26 19:19:25;;;;;;;33.63;20.95;;;;;;;22.09;64.40;100968.13;10490686;28;20113;-78
2021/07/26 19:24:25;;;;;;;35.42;25.85;;;;;;;22.56;64.75;101055.38;10491315;28;20102;-78
2021/07/26 19:29:26;;;;;;;46.85;20.77;;;;;;;22.52;64.42;101055.13;10473930;28;20083;-78
2021/07/26 19:34:26;;;;;;;31.80;21.85;;;;;;;22.15;65.05;101006.47;10490276;28;20440;-77
2021/07/26 19:39:27;;;;;;;37.97;21.27;;;;;;;22.12;64.75;100995.97;10490109;28;20121;-79
2021/07/26 19:44:27;;;;;;;33.60;21.92;;;;;;;22.54;64.64;101074.19;10471405;28;20079;-78
2021/07/26 19:49:28;;;;;;;31.45;21.55;;;;;;;22.18;65.22;101052.03;10472453;28;20534;-78
2021/07/26 19:54:28;;;;;;;39.60;24.45;;;;;;;22.35;65.08;101085.72;10475878;28;20127;-77
2021/07/26 19:59:29;;;;;;;27.25;22.65;;;;;;;22.29;65.16;101084.03;10501418;28;20154;-78
2021/07/26 20:04:29;;;;;;;44.58;25.30;;;;;;;22.24;65.17;101093.16;10497803;28;20032;-78
2021/07/26 20:09:33;;;;;;;41.08;22.70;;;;;;;22.19;65.90;101092.28;10494468;28;20090;-77
2021/07/26 20:14:33;;;;;;;41.03;23.92;;;;;;;22.14;65.48;101101.31;10493011;28;20116;-78
2021/07/26 20:19:34;;;;;;;40.20;24.63;;;;;;;21.92;65.25;101062.06;10494858;28;20040;-77
2021/07/26 20:24:34;;;;;;;41.75;25.67;;;;;;;22.24;65.13;101103.34;10494380;28;20401;-77
2021/07/26 20:29:39;;;;;;;42.75;24.45;;;;;;;22.18;65.14;101105.25;10496002;28;20109;-78
2021/07/26 20:34:39;;;;;;;48.90;25.17;;;;;;;22.18;64.88;101115.47;10476398;28;20110;-78
2021/07/26 20:39:40;;;;;;;38.05;24.33;;;;;;;22.09;65.05;101139.13;10493649;28;20097;-78
2021/07/26 20:44:40;;;;;;;25.77;21.42;;;;;;;22.02;65.76;101151.22;10473774;28;20333;-78
2021/07/26 20:49:41;;;;;;;35.75;23.92;;;;;;;22.09;65.16;101137.19;10477674;28;20125;-79
2021/07/26 20:54:41;;;;;;;53.88;26.50;;;;;;;21.76;65.62;101097.00;10496723;28;20040;-78
2021/07/26 20:59:42;;;;;;;42.20;27.70;;;;;;;21.97;65.68;101142.91;10483952;28;20072;-78
2021/07/26 21:04:42;;;;;;;45.80;27.23;;;;;;;21.89;65.59;101145.31;10485470;28;20163;-78
2021/07/26 21:09:42;;;;;;;36.42;22.27;;;;;;;21.18;65.86;101032.72;10486790;28;20062;-78
2021/07/26 21:14:51;;;;;;;29.23;20.67;;;;;;;21.85;65.50;101131.25;10471060;28;20028;-78
2021/07/26 21:19:52;;;;;;;27.20;18.73;;;;;;;21.74;65.13;101129.56;10490805;28;20024;-79
2021/07/26 21:24:52;;;;;;;21.17;16.10;;;;;;;21.77;65.56;101145.56;10506125;28;20391;-79
2021/07/26 21:29:53;;;;;;;24.50;16.85;;;;;;;21.77;65.24;101145.56;10505208;28;20392;-77
2021/07/26 21:34:54;;;;;;;28.75;19.60;;;;;;;21.73;65.36;101142.50;10501294;28;20199;-77
2021/07/26 21:39:55;;;;;;;21.73;17.85;;;;;;;21.45;66.07;101146.44;10484010;28;20384;-77
2021/07/26 21:44:55;;;;;;;23.77;17.33;;;;;;;;;;10501400;28;20043;-77
2021/07/26 21:49:56;;;;;;;27.42;20.23;;;;;;;21.48;66.01;101134.06;10500194;28;20127;-77
2021/07/26 21:54:56;;;;;;;37.67;19.58;;;;;;;21.02;66.00;101038.09;10500205;28;20393;-77
2021/07/26 21:59:57;;;;;;;29.73;15.88;;;;;;;21.10;65.55;101054.16;10481602;28;20072;-77
2021/07/26 22:04:57;;;;;;;28.25;15.20;;;;;;;21.66;65.64;101141.88;10480012;28;20417;-77
2021/07/26 22:09:58;;;;;;;31.00;17.58;;;;;;;21.39;65.79;101100.66;10484834;28;20033;-76
2021/07/26 22:14:58;;;;;;;28.77;18.52;;;;;;;21.22;65.68;101109.06;10507164;28;20024;-77
2021/07/26 22:20:01;;;;;;;34.25;17.30;;;;;;;21.39;65.51;101125.47;10492681;28;20033;-77
2021/07/26 22:25:01;;;;;;;29.52;17.48;;;;;;;21.06;65.66;101113.59;10499028;28;20052;-77
2021/07/26 22:30:02;;;;;;;28.75;18.38;;;;;;;20.98;66.00;101125.09;10497744;28;20037;-77
2021/07/26 22:35:04;;;;;;;26.42;17.33;;;;;;;20.25;66.25;101028.31;10499083;28;20414;-77
2021/07/26 22:40:05;;;;;;;18.45;14.55;;;;;;;20.73;66.36;101120.16;10496779;28;20067;-77
2021/07/26 22:45:06;;;;;;;28.00;17.27;;;;;;;20.61;66.63;101117.59;10497147;28;20444;-77
2021/07/26 22:50:09;;;;;;;21.15;17.30;;;;;;;20.49;66.96;101116.88;10499407;28;20040;-77